Time;durP1;ratioP1;P1;durP2;ratioP2;P2;SDS_P1;SDS_P2;PMS_P1;PMS_P2;Temp;Humidity;BMP_temperature;BMP_pressure;BME280_temperature;BME280_humidity;BME280_pressure;Samples;Min_cycle;Max_cycle;Signal;HPM_P1;HPM_P2
2021/03/04 05:16:40;;;;;;;25.75;17.55;;;;;;;4.61;60.72;95121.22;833870;71;32744;-82
2021/03/04 05:31:08;;;;;;;25.23;17.50;;;;;;;5.00;60.13;95111.70;828246;71;30535;-77
2021/03/04 05:46:18;;;;;;;32.42;21.50;;;;;;;7.76;54.43;95099.11;821183;70;32748;-79
2021/03/04 06:01:15;;;;;;;39.92;26.68;;;;;;;9.80;48.62;95103.75;839479;70;33199;-79
2021/03/04 06:16:11;;;;;;;49.42;33.58;;;;;;;11.01;44.65;95087.39;821512;70;30957;-77
2021/03/04 06:31:20;;;;;;;55.08;35.33;;;;;;;12.06;41.96;95088.19;826993;71;33188;-78
2021/03/04 06:46:15;;;;;;;52.70;33.95;;;;;;;13.37;40.32;95083.93;826636;71;32748;-76
2021/03/04 07:01:16;;;;;;;53.25;35.70;;;;;;;14.47;38.75;95078.92;828996;71;29763;-81
2021/03/04 07:16:22;;;;;;;51.18;33.88;;;;;;;14.59;37.37;95069.42;833617;71;31683;-77
2021/03/04 07:31:15;;;;;;;48.55;34.25;;;;;;;15.31;36.50;95055.05;824126;71;31833;-77
2021/03/04 07:46:33;;;;;;;46.98;34.03;;;;;;;15.89;35.51;95028.16;823034;71;31754;-75
2021/03/04 08:01:14;;;;;;;49.33;36.05;;;;;;;16.31;33.54;95011.33;834549;71;31881;-77
2021/03/04 08:16:17;;;;;;;50.63;32.20;;;;;;;17.00;33.61;94992.73;827902;71;29297;-77
2021/03/04 08:31:15;;;;;;;32.05;23.90;;;;;;;18.67;30.95;94983.32;834078;71;31751;-81
2021/03/04 08:46:14;;;;;;;41.58;29.37;;;;;;;18.93;30.11;94962.59;827382;71;32286;-79
2021/03/04 09:46:33;;;;;;;33.98;27.50;;;;;;;20.02;29.34;94883.63;815798;71;30391;-81
2021/03/04 10:46:09;;;;;;;20.48;18.10;;;;;;;21.18;33.37;94755.47;829370;71;29345;-76
2021/03/04 11:01:09;;;;;;;73.40;66.20;;;;;;;23.80;28.90;94734.97;820170;71;29267;-79
2021/03/04 11:16:09;;;;;;;36.83;25.20;;;;;;;22.67;24.97;94695.59;828054;71;29149;-81
2021/03/04 11:31:15;;;;;;;33.07;25.50;;;;;;;22.64;24.73;94658.87;833598;71;31755;-76
2021/03/04 11:46:14;;;;;;;28.67;22.63;;;;;;;22.74;27.14;94628.25;833613;71;32317;-77
2021/03/04 12:01:13;;;;;;;32.93;23.40;;;;;;;22.69;23.98;94603.16;827773;71;31850;-79
2021/03/04 12:16:15;;;;;;;29.93;23.23;;;;;;;22.63;23.53;94569.05;827270;71;31831;-77
2021/03/04 12:31:09;;;;;;;28.30;22.63;;;;;;;22.09;23.86;94540.22;827855;71;29272;-76
2021/03/04 12:46:29;;;;;;;31.25;23.87;;;;;;;21.26;24.31;94531.43;821950;71;32306;-77
2021/03/04 13:01:11;;;;;;;28.07;23.40;;;;;;;20.90;24.65;94500.09;827673;71;30102;-76
2021/03/04 13:16:14;;;;;;;25.00;20.65;;;;;;;20.10;25.79;94489.74;820540;71;32732;-79
2021/03/04 13:31:14;;;;;;;25.70;20.17;;;;;;;20.43;25.55;94466.42;827867;71;32808;-77
2021/03/04 13:46:19;;;;;;;25.15;19.98;;;;;;;20.57;25.24;94457.36;833731;71;32698;-76
2021/03/04 14:01:19;;;;;;;21.85;17.90;;;;;;;20.04;25.59;94442.42;826903;71;33209;-78
2021/03/04 14:16:09;;;;;;;25.35;16.93;;;;;;;19.68;25.61;94427.73;827753;71;30584;-79
2021/03/04 14:31:18;;;;;;;19.17;15.05;;;;;;;19.30;25.79;94410.56;830260;71;32803;-80
2021/03/04 14:46:08;;;;;;;16.25;7.08;;;;;;;19.14;23.90;94391.15;833608;71;29952;-77
2021/03/04 15:01:28;;;;;;;6.22;5.58;;;;;;;18.89;23.05;94372.72;830745;71;30257;-75
2021/03/04 15:16:09;;;;;;;15.78;12.53;;;;;;;19.15;28.03;94360.22;827677;71;30330;-76
2021/03/04 15:31:19;;;;;;;18.15;12.95;;;;;;;18.20;27.17;94358.80;834294;71;32816;-78
2021/03/04 15:46:11;;;;;;;17.35;12.90;;;;;;;17.58;27.90;94355.00;827698;71;32037;-78
2021/03/04 16:01:19;;;;;;;14.95;9.38;;;;;;;16.95;27.59;94354.60;827197;71;33202;-79
2021/03/04 16:16:12;;;;;;;17.82;11.50;;;;;;;16.37;28.53;94366.53;827905;71;31977;-80
2021/03/04 16:31:15;;;;;;;21.23;12.63;;;;;;;15.89;29.48;94366.02;827549;71;32728;-77
